Time;durP1;ratioP1;P1;durP2;ratioP2;P2;SDS_P1;SDS_P2;PMS_P1;PMS_P2;Temp;Humidity;BMP_temperature;BMP_pressure;BME280_temperature;BME280_humidity;BME280_pressure;Samples;Min_cycle;Max_cycle;Signal;HPM_P1;HPM_P2
2024/02/06 00:02:01;;;;;;;20.65;5.20;;;10.40;99.90;;;;;;5062896;28;20259;-48
2024/02/06 00:04:27;;;;;;;20.88;5.03;;;10.40;99.90;;;;;;5063413;28;20193;-44
2024/02/06 00:06:53;;;;;;;20.63;4.90;;;10.40;99.90;;;;;;5062773;28;20663;-50
2024/02/06 00:09:20;;;;;;;21.48;5.32;;;10.40;99.90;;;;;;5063115;28;20613;-47
2024/02/06 00:11:46;;;;;;;17.00;5.50;;;10.40;99.90;;;;;;5061470;28;20617;-50
2024/02/06 00:14:11;;;;;;;13.80;4.80;;;10.50;99.90;;;;;;5062601;28;20269;-51
2024/02/06 00:16:37;;;;;;;25.63;5.80;;;10.50;99.90;;;;;;5063128;28;20179;-45
2024/02/06 00:19:05;;;;;;;22.45;5.38;;;10.40;99.90;;;;;;5063053;28;20311;-44
2024/02/06 00:21:31;;;;;;;20.90;5.10;;;10.40;99.90;;;;;;5062838;28;20340;-47
2024/02/06 00:23:57;;;;;;;24.48;5.43;;;10.50;99.90;;;;;;5062441;28;20243;-45
2024/02/06 00:26:23;;;;;;;27.05;5.50;;;10.40;99.90;;;;;;5062718;28;20222;-44
2024/02/06 00:28:49;;;;;;;22.90;5.85;;;10.50;99.90;;;;;;5055752;28;20225;-42
2024/02/06 00:31:14;;;;;;;21.77;5.40;;;10.40;99.90;;;;;;5062657;28;20247;-44
2024/02/06 00:33:40;;;;;;;19.67;5.20;;;10.50;99.90;;;;;;5062541;28;20186;-45
2024/02/06 00:36:06;;;;;;;22.05;5.38;;;10.50;99.90;;;;;;5062417;28;20293;-42
2024/02/06 00:38:31;;;;;;;22.80;5.80;;;10.40;99.90;;;;;;5077894;28;20195;-48
2024/02/06 00:40:57;;;;;;;23.90;5.70;;;10.40;99.90;;;;;;5062832;28;20673;-46
2024/02/06 00:43:23;;;;;;;20.95;5.30;;;10.40;99.90;;;;;;5062448;28;20286;-45
2024/02/06 00:45:51;;;;;;;19.70;4.85;;;10.50;99.90;;;;;;5060333;28;20259;-45
2024/02/06 00:48:16;;;;;;;21.17;5.07;;;10.40;99.90;;;;;;5062672;28;20206;-44
2024/02/06 00:50:42;;;;;;;18.30;5.22;;;10.40;99.90;;;;;;5062072;28;20182;-45
2024/02/06 00:53:08;;;;;;;21.52;4.95;;;10.40;99.90;;;;;;5062735;28;20579;-44
2024/02/06 00:55:33;;;;;;;20.98;5.28;;;10.50;99.90;;;;;;5061783;28;20202;-42
2024/02/06 00:57:59;;;;;;;22.23;5.55;;;10.50;99.90;;;;;;5062386;28;20215;-43
2024/02/06 01:00:25;;;;;;;20.42;5.75;;;10.50;99.90;;;;;;5076820;28;20221;-43
2024/02/06 01:02:51;;;;;;;30.55;5.97;;;10.50;99.90;;;;;;5062518;28;20675;-42
2024/02/06 01:05:16;;;;;;;17.33;5.45;;;10.50;99.90;;;;;;5061800;28;20197;-45
2024/02/06 01:07:42;;;;;;;18.08;5.20;;;10.50;99.90;;;;;;5061766;28;21290;-45
2024/02/06 01:10:08;;;;;;;16.90;4.97;;;10.50;99.90;;;;;;5061834;28;20300;-46
2024/02/06 01:12:34;;;;;;;16.73;5.20;;;10.50;99.90;;;;;;5061262;28;20232;-49
2024/02/06 01:14:59;;;;;;;20.40;5.45;;;10.50;99.90;;;;;;5061623;28;20178;-49
2024/02/06 01:17:26;;;;;;;27.27;5.35;;;10.50;99.90;;;;;;5062038;28;20255;-50
2024/02/06 01:19:52;;;;;;;14.57;4.20;;;10.60;99.90;;;;;;5061532;28;20242;-46
2024/02/06 01:22:18;;;;;;;23.85;5.40;;;10.60;99.90;;;;;;5061488;28;20604;-47
2024/02/06 01:24:44;;;;;;;20.05;5.68;;;10.60;99.90;;;;;;5061591;28;20190;-45
2024/02/06 01:27:10;;;;;;;26.40;6.10;;;10.60;99.90;;;;;;5061609;28;20561;-49
2024/02/06 01:29:37;;;;;;;22.17;5.45;;;10.60;99.90;;;;;;5061314;28;20179;-45
2024/02/06 01:32:03;;;;;;;22.55;5.43;;;10.60;99.90;;;;;;5061327;28;20703;-46
2024/02/06 01:34:29;;;;;;;28.85;5.95;;;10.60;99.90;;;;;;5061211;28;20226;-44
2024/02/06 01:36:55;;;;;;;26.08;5.40;;;10.60;99.90;;;;;;5061676;28;20297;-48
2024/02/06 01:39:21;;;;;;;16.55;5.45;;;10.60;99.90;;;;;;5076534;28;20226;-48
2024/02/06 01:41:47;;;;;;;22.58;5.05;;;10.60;99.90;;;;;;5061047;28;20194;-44
2024/02/06 01:44:13;;;;;;;23.52;5.65;;;10.60;99.90;;;;;;5060540;28;20202;-49
2024/02/06 01:46:39;;;;;;;22.60;5.30;;;10.60;99.90;;;;;;5061764;28;20566;-44
2024/02/06 01:49:06;;;;;;;20.17;5.53;;;10.60;99.90;;;;;;5061003;28;20237;-46
2024/02/06 01:51:35;;;;;;;21.48;5.28;;;10.60;99.90;;;;;;5061239;28;20741;-43
2024/02/06 01:54:01;;;;;;;25.02;5.90;;;10.60;99.90;;;;;;5060353;28;20193;-46
2024/02/06 01:56:27;;;;;;;18.55;4.80;;;10.60;99.90;;;;;;5061263;28;20205;-49
2024/02/06 01:58:54;;;;;;;18.83;5.13;;;10.60;99.90;;;;;;5061045;28;20203;-48
2024/02/06 02:01:21;;;;;;;21.63;5.25;;;10.70;99.90;;;;;;5059268;28;20260;-46
2024/02/06 02:03:47;;;;;;;23.83;5.63;;;10.70;99.90;;;;;;5060695;28;20187;-41
2024/02/06 02:06:14;;;;;;;31.35;6.32;;;10.70;99.90;;;;;;5076411;28;20221;-45
2024/02/06 02:08:40;;;;;;;34.60;6.18;;;10.70;99.90;;;;;;5061040;28;20277;-48
2024/02/06 02:11:06;;;;;;;21.70;4.50;;;10.70;99.90;;;;;;5060905;28;20305;-45
2024/02/06 02:13:31;;;;;;;24.20;5.65;;;10.70;99.90;;;;;;5075771;28;20285;-45
2024/02/06 02:16:01;;;;;;;25.70;5.30;;;10.70;99.90;;;;;;5076611;28;20191;-50
2024/02/06 02:18:31;;;;;;;31.52;6.50;;;10.70;99.90;;;;;;5059813;28;20203;-47
2024/02/06 02:20:57;;;;;;;21.38;5.13;;;10.70;99.90;;;;;;5061360;28;20240;-46
2024/02/06 02:23:23;;;;;;;24.45;6.00;;;10.70;99.90;;;;;;5060742;28;20650;-46
2024/02/06 02:25:49;;;;;;;27.83;6.35;;;10.70;99.90;;;;;;5060541;28;20206;-45
2024/02/06 02:28:15;;;;;;;28.30;5.82;;;10.60;99.90;;;;;;5060434;28;20190;-46
2024/02/06 02:30:42;;;;;;;27.92;5.47;;;10.60;99.90;;;;;;5060785;28;20190;-46
2024/02/06 02:33:09;;;;;;;26.85;6.00;;;10.60;99.90;;;;;;5060558;28;20205;-46
2024/02/06 02:35:34;;;;;;;35.67;7.03;;;10.60;99.90;;;;;;5075660;28;20737;-45
2024/02/06 02:38:00;;;;;;;26.55;5.63;;;10.60;99.90;;;;;;5060739;28;20289;-47
2024/02/06 02:40:26;;;;;;;28.75;6.22;;;10.70;99.90;;;;;;5059939;28;20347;-46
2024/02/06 02:42:53;;;;;;;31.92;7.50;;;10.70;99.90;;;;;;5060292;28;20196;-44
2024/02/06 02:45:18;;;;;;;25.20;5.80;;;10.60;99.90;;;;;;5060325;28;20198;-44
2024/02/06 02:47:45;;;;;;;27.50;5.50;;;10.60;99.90;;;;;;5060455;28;20179;-47
2024/02/06 02:50:11;;;;;;;26.08;6.07;;;10.70;99.90;;;;;;5060358;28;20331;-50
2024/02/06 02:52:37;;;;;;;26.88;6.07;;;10.60;99.90;;;;;;5060643;28;20660;-50
2024/02/06 02:55:03;;;;;;;32.58;6.82;;;10.60;99.90;;;;;;5092267;28;20730;-45
2024/02/06 02:57:29;;;;;;;30.25;6.68;;;10.60;99.90;;;;;;5060369;28;20202;-46
2024/02/06 02:59:54;;;;;;;26.25;5.88;;;10.60;99.90;;;;;;5060208;28;20214;-46
2024/02/06 03:02:20;;;;;;;30.85;6.80;;;10.60;99.90;;;;;;5060602;28;20225;-46
2024/02/06 03:04:46;;;;;;;35.25;6.25;;;10.70;99.90;;;;;;5060128;28;20186;-47
2024/02/06 03:07:12;;;;;;;27.98;6.05;;;10.60;99.90;;;;;;5060392;28;20654;-49
2024/02/06 03:09:40;;;;;;;24.30;5.97;;;10.70;99.90;;;;;;5060974;28;20190;-44
2024/02/06 03:12:07;;;;;;;31.52;6.30;;;10.70;99.90;;;;;;5059899;28;20194;-45
2024/02/06 03:14:33;;;;;;;31.73;6.22;;;10.70;99.90;;;;;;5059439;28;20190;-47
2024/02/06 03:16:59;;;;;;;27.90;5.90;;;10.60;99.90;;;;;;5060078;28;20198;-45
2024/02/06 03:19:24;;;;;;;24.92;5.63;;;10.60;99.90;;;;;;5059547;28;20225;-45
2024/02/06 03:21:50;;;;;;;27.45;6.25;;;10.60;99.90;;;;;;5060524;28;20195;-43
2024/02/06 03:24:16;;;;;;;29.15;6.07;;;10.60;99.90;;;;;;5062474;28;20744;-46
2024/02/06 03:26:42;;;;;;;33.08;6.30;;;10.60;99.90;;;;;;5061950;28;20249;-47
2024/02/06 03:29:08;;;;;;;36.90;6.43;;;10.60;99.90;;;;;;5063589;28;20191;-47
2024/02/06 03:31:33;;;;;;;26.85;6.68;;;10.60;99.90;;;;;;5063347;28;20206;-45
2024/02/06 03:33:59;;;;;;;34.20;6.18;;;10.60;99.90;;;;;;5063950;28;20187;-42
2024/02/06 03:36:25;;;;;;;33.50;6.50;;;10.60;99.90;;;;;;5063108;28;20210;-51
2024/02/06 03:38:50;;;;;;;24.45;6.05;;;10.60;99.90;;;;;;5063954;28;20211;-45
2024/02/06 03:41:16;;;;;;;33.20;7.07;;;10.60;99.90;;;;;;5063255;28;20260;-45
2024/02/06 03:43:43;;;;;;;27.85;6.07;;;10.60;99.90;;;;;;5062221;28;20186;-51
2024/02/06 03:46:09;;;;;;;29.27;5.85;;;10.60;99.90;;;;;;5063965;28;20194;-48
2024/02/06 03:48:35;;;;;;;32.60;5.97;;;10.60;99.90;;;;;;5044821;28;21113;-51
2024/02/06 03:51:04;;;;;;;33.28;6.38;;;10.60;99.90;;;;;;5063591;28;20194;-46
2024/02/06 03:53:31;;;;;;;27.77;6.13;;;10.60;99.90;;;;;;5062804;28;20191;-40
2024/02/06 03:55:57;;;;;;;29.85;6.07;;;10.60;99.90;;;;;;5063475;28;20191;-43
2024/02/06 03:58:23;;;;;;;29.10;5.60;;;10.60;99.90;;;;;;5062762;28;21303;-39
2024/02/06 04:00:50;;;;;;;37.92;6.13;;;10.70;99.90;;;;;;5063123;28;20285;-41
2024/02/06 04:03:17;;;;;;;31.77;6.20;;;10.70;99.90;;;;;;5063197;28;20972;-47
2024/02/06 04:05:43;;;;;;;22.13;5.45;;;10.60;99.90;;;;;;5062695;28;20194;-49
2024/02/06 04:08:09;;;;;;;28.55;6.40;;;10.70;99.90;;;;;;5062808;28;20549;-43
2024/02/06 04:10:36;;;;;;;33.38;6.03;;;10.70;99.90;;;;;;5062885;28;20248;-46
2024/02/06 04:13:03;;;;;;;24.70;5.65;;;10.70;99.90;;;;;;5063388;28;21371;-43
2024/02/06 04:15:30;;;;;;;27.38;5.05;;;10.70;99.90;;;;;;5061880;28;20229;-43
2024/02/06 04:17:56;;;;;;;26.75;6.10;;;10.70;99.90;;;;;;5061611;28;20945;-42
2024/02/06 04:20:22;;;;;;;33.08;5.70;;;10.80;99.90;;;;;;5060315;28;20246;-44
2024/02/06 04:22:47;;;;;;;27.35;5.40;;;10.70;99.90;;;;;;5062816;28;20194;-44
2024/02/06 04:25:13;;;;;;;33.47;6.13;;;10.70;99.90;;;;;;5062468;28;20198;-49
2024/02/06 04:27:39;;;;;;;28.85;5.40;;;10.70;99.90;;;;;;5062098;28;20242;-45
2024/02/06 04:30:05;;;;;;;30.20;5.88;;;10.70;99.90;;;;;;5062402;28;20186;-48
2024/02/06 04:32:31;;;;;;;27.70;5.78;;;10.70;99.90;;;;;;5063189;28;20392;-43
2024/02/06 04:34:57;;;;;;;32.83;5.95;;;10.70;99.90;;;;;;5061751;28;20285;-41
2024/02/06 04:37:22;;;;;;;29.30;5.82;;;10.70;99.90;;;;;;5062594;28;20198;-44
2024/02/06 04:39:48;;;;;;;26.83;5.00;;;10.70;99.90;;;;;;5077371;28;20230;-44
2024/02/06 04:42:14;;;;;;;31.08;5.63;;;10.70;99.90;;;;;;5059929;28;20741;-48
2024/02/06 04:44:40;;;;;;;27.63;5.65;;;10.70;99.90;;;;;;5060812;28;20599;-43
2024/02/06 04:47:05;;;;;;;38.83;6.43;;;10.70;99.90;;;;;;5061371;28;20295;-41
2024/02/06 04:49:31;;;;;;;30.83;5.22;;;10.70;99.90;;;;;;5062277;28;20199;-46
2024/02/06 04:51:57;;;;;;;27.38;5.15;;;10.70;99.90;;;;;;5062214;28;21294;-47
2024/02/06 04:54:23;;;;;;;30.30;5.57;;;10.70;99.90;;;;;;5062140;28;20375;-48
2024/02/06 04:56:49;;;;;;;33.35;6.22;;;10.70;99.90;;;;;;5062585;28;20300;-40
2024/02/06 04:59:15;;;;;;;21.48;5.15;;;10.70;99.90;;;;;;5061932;28;20206;-46
2024/02/06 05:01:40;;;;;;;23.38;5.22;;;10.70;99.90;;;;;;5062073;28;20179;-44
2024/02/06 05:04:07;;;;;;;28.98;5.97;;;10.70;99.90;;;;;;5062112;28;20193;-45
2024/02/06 05:06:33;;;;;;;24.67;5.38;;;10.70;99.90;;;;;;5061850;28;20190;-43
2024/02/06 05:08:59;;;;;;;27.95;5.32;;;10.70;99.90;;;;;;5047220;28;20583;-47
2024/02/06 05:11:24;;;;;;;26.35;5.30;;;10.70;99.90;;;;;;5061835;28;20190;-45
2024/02/06 05:13:50;;;;;;;30.38;5.97;;;10.70;99.90;;;;;;5062067;28;20983;-46
2024/02/06 05:16:17;;;;;;;35.60;5.78;;;10.80;99.90;;;;;;5061274;28;20222;-46
2024/02/06 05:18:43;;;;;;;33.22;5.85;;;10.80;99.90;;;;;;5060798;28;21058;-44
2024/02/06 05:21:09;;;;;;;26.45;5.72;;;10.80;99.90;;;;;;5061697;28;20214;-43
2024/02/06 05:23:35;;;;;;;32.80;6.03;;;10.80;99.90;;;;;;5061278;28;20248;-41
2024/02/06 05:26:01;;;;;;;31.75;5.35;;;10.80;99.90;;;;;;5061645;28;20372;-48
2024/02/06 05:28:27;;;;;;;31.05;5.93;;;10.80;99.90;;;;;;5061315;28;21351;-50
2024/02/06 05:30:53;;;;;;;26.83;5.40;;;10.80;99.90;;;;;;5061586;28;20293;-43
2024/02/06 05:33:19;;;;;;;28.85;6.00;;;10.80;99.90;;;;;;5061464;28;20195;-44
2024/02/06 05:35:45;;;;;;;31.00;5.82;;;10.80;99.90;;;;;;5061565;28;20269;-42
2024/02/06 05:38:11;;;;;;;32.28;5.05;;;10.80;99.90;;;;;;5060329;28;20183;-45
2024/02/06 05:40:36;;;;;;;34.65;5.20;;;10.80;99.90;;;;;;5059302;28;20267;-47
2024/02/06 05:43:02;;;;;;;25.00;5.85;;;10.80;99.90;;;;;;5060875;28;20884;-45
2024/02/06 05:45:28;;;;;;;23.35;5.47;;;10.80;99.90;;;;;;5061206;28;20216;-49
2024/02/06 05:47:55;;;;;;;29.88;5.20;;;10.80;99.90;;;;;;5060671;28;20202;-49
2024/02/06 05:50:22;;;;;;;30.15;4.13;;;10.90;99.90;;;;;;5061232;28;20706;-47
2024/02/06 05:52:48;;;;;;;30.98;5.18;;;10.90;99.90;;;;;;5060445;28;20183;-46
2024/02/06 05:55:14;;;;;;;30.10;5.70;;;10.90;99.90;;;;;;5061313;28;20191;-47
2024/02/06 05:57:40;;;;;;;24.90;4.47;;;10.90;99.90;;;;;;5059615;28;20244;-46
2024/02/06 06:00:07;;;;;;;30.08;5.28;;;10.90;99.90;;;;;;5060350;28;20214;-46
2024/02/06 06:02:33;;;;;;;28.80;5.10;;;10.90;99.90;;;;;;5059422;28;20179;-50
2024/02/06 06:04:58;;;;;;;24.42;5.20;;;10.90;99.90;;;;;;5059356;28;20217;-45
2024/02/06 06:07:24;;;;;;;31.00;5.25;;;10.90;99.90;;;;;;5060742;28;20190;-47
2024/02/06 06:09:50;;;;;;;22.08;4.70;;;10.90;99.90;;;;;;5060690;28;20191;-44
2024/02/06 06:12:16;;;;;;;22.20;5.53;;;10.90;99.90;;;;;;5059980;28;20293;-43
2024/02/06 06:14:41;;;;;;;25.60;5.50;;;10.90;99.90;;;;;;5042970;28;20616;-44
2024/02/06 06:17:07;;;;;;;34.05;5.97;;;11.00;99.90;;;;;;5058800;28;20305;-48
2024/02/06 06:19:33;;;;;;;28.63;4.70;;;11.00;99.90;;;;;;5061148;28;20206;-46
2024/02/06 06:22:06;;;;;;;22.60;4.85;;;11.00;99.90;;;;;;5042471;28;20650;-42
2024/02/06 06:24:32;;;;;;;30.77;4.70;;;11.00;99.90;;;;;;5058283;28;20214;-44
2024/02/06 06:26:58;;;;;;;29.77;5.43;;;11.00;99.90;;;;;;5060847;28;20249;-46
2024/02/06 06:29:23;;;;;;;29.13;5.97;;;11.00;99.90;;;;;;5042088;28;20190;-48
2024/02/06 06:31:49;;;;;;;26.88;5.22;;;11.00;99.90;;;;;;5060460;28;20710;-48
2024/02/06 06:34:15;;;;;;;27.95;4.68;;;11.00;99.90;;;;;;5060118;28;20194;-46
2024/02/06 06:36:40;;;;;;;28.10;5.35;;;11.00;99.90;;;;;;5060690;28;20565;-46
2024/02/06 06:39:08;;;;;;;28.45;5.05;;;11.00;99.90;;;;;;5060780;28;20289;-47
2024/02/06 06:41:34;;;;;;;22.75;5.47;;;11.00;99.90;;;;;;5041765;28;20251;-43
2024/02/06 06:44:00;;;;;;;27.48;5.22;;;11.00;99.90;;;;;;5059838;28;20179;-45
2024/02/06 06:46:25;;;;;;;31.60;5.90;;;11.00;99.90;;;;;;5060097;28;20543;-45
2024/02/06 06:48:51;;;;;;;27.80;5.10;;;11.10;99.90;;;;;;5059206;28;20186;-49
2024/02/06 06:51:17;;;;;;;27.00;5.35;;;11.10;99.90;;;;;;5060010;28;20194;-44
2024/02/06 06:53:43;;;;;;;21.33;4.63;;;11.10;99.90;;;;;;5059473;28;20198;-48
2024/02/06 06:56:16;;;;;;;32.20;5.80;;;11.10;99.90;;;;;;5041610;28;20218;-47
2024/02/06 06:58:42;;;;;;;27.88;5.38;;;11.10;99.90;;;;;;5045672;28;20723;-46
2024/02/06 07:01:07;;;;;;;28.98;5.68;;;11.10;99.90;;;;;;5079606;28;20289;-42
2024/02/06 07:03:33;;;;;;;30.58;5.93;;;11.10;99.90;;;;;;5063803;28;20187;-45
2024/02/06 07:05:59;;;;;;;27.48;4.72;;;11.10;99.90;;;;;;5063247;28;20685;-47
2024/02/06 07:08:25;;;;;;;29.58;5.93;;;11.10;99.90;;;;;;5063157;28;20183;-45
2024/02/06 07:10:51;;;;;;;23.77;5.78;;;11.10;99.90;;;;;;5063576;28;20189;-47
2024/02/06 07:13:17;;;;;;;30.30;5.57;;;11.10;99.90;;;;;;5045429;28;20191;-45
2024/02/06 07:15:42;;;;;;;31.30;5.43;;;11.10;99.90;;;;;;5062819;28;21139;-54
2024/02/06 07:18:08;;;;;;;29.60;5.63;;;11.10;99.90;;;;;;5063033;28;20198;-46
2024/02/06 07:20:34;;;;;;;26.63;6.18;;;11.10;99.90;;;;;;5045507;28;20207;-48
2024/02/06 07:23:00;;;;;;;34.92;5.85;;;11.10;99.90;;;;;;5063886;28;20190;-50
2024/02/06 07:25:26;;;;;;;33.95;6.68;;;11.00;99.90;;;;;;5063287;28;21212;-48
2024/02/06 07:27:52;;;;;;;28.40;5.53;;;11.00;99.90;;;;;;5062422;28;20233;-46
2024/02/06 07:30:17;;;;;;;34.10;6.35;;;11.00;99.90;;;;;;5063705;28;20199;-46
2024/02/06 07:32:43;;;;;;;37.05;6.25;;;11.00;99.90;;;;;;5064129;28;20541;-47
2024/02/06 07:35:09;;;;;;;33.42;5.93;;;11.00;99.90;;;;;;5063531;28;20190;-46
2024/02/06 07:37:35;;;;;;;33.70;6.00;;;11.00;99.90;;;;;;5079305;28;20190;-45
2024/02/06 07:40:03;;;;;;;30.52;6.15;;;11.00;99.90;;;;;;5061235;28;20352;-43
2024/02/06 07:42:29;;;;;;;31.27;5.72;;;10.90;99.90;;;;;;5063443;28;20195;-41
2024/02/06 07:44:55;;;;;;;29.52;5.07;;;10.90;99.90;;;;;;5063276;28;20201;-48
2024/02/06 07:47:21;;;;;;;31.25;5.47;;;10.90;99.90;;;;;;5061286;28;20560;-48
2024/02/06 07:49:46;;;;;;;31.05;5.68;;;10.90;99.90;;;;;;5062018;28;20263;-47
2024/02/06 07:52:13;;;;;;;28.88;5.45;;;10.90;99.90;;;;;;5061360;28;20210;-46
2024/02/06 07:54:39;;;;;;;43.50;5.85;;;10.90;99.90;;;;;;5043090;28;20285;-49
2024/02/06 07:57:06;;;;;;;33.47;5.30;;;10.90;99.90;;;;;;5061496;28;20671;-48
2024/02/06 07:59:31;;;;;;;29.85;6.00;;;10.90;99.90;;;;;;5076921;28;20256;-46
2024/02/06 08:01:57;;;;;;;29.95;5.13;;;10.90;99.90;;;;;;5061152;28;21065;-48
2024/02/06 08:04:23;;;;;;;30.23;6.50;;;10.90;99.90;;;;;;5061875;28;20199;-46
2024/02/06 08:06:48;;;;;;;31.77;5.40;;;10.90;99.90;;;;;;5062457;28;20365;-44
2024/02/06 08:09:15;;;;;;;25.52;5.32;;;10.90;99.90;;;;;;5060787;28;20191;-44
2024/02/06 08:11:41;;;;;;;30.58;5.38;;;11.00;99.90;;;;;;5062279;28;20195;-46
2024/02/06 08:14:12;;;;;;;28.95;4.90;;;11.00;99.90;;;;;;5060525;28;20183;-47
2024/02/06 08:16:41;;;;;;;22.50;4.22;;;11.00;99.90;;;;;;5063064;28;20187;-48
2024/02/06 08:19:08;;;;;;;21.92;4.28;;;11.10;99.90;;;;;;5061765;28;20214;-47
2024/02/06 08:21:34;;;;;;;27.05;5.22;;;11.10;99.90;;;;;;5062661;28;20225;-48
2024/02/06 08:24:00;;;;;;;22.70;4.78;;;11.10;99.90;;;;;;5062534;28;20677;-47
2024/02/06 08:26:25;;;;;;;23.98;4.85;;;11.10;99.90;;;;;;5060896;28;20303;-43
2024/02/06 08:28:51;;;;;;;32.05;4.93;;;11.10;99.90;;;;;;5062675;28;20222;-43
2024/02/06 08:31:22;;;;;;;26.15;4.90;;;11.20;99.90;;;;;;5061995;28;20217;-47
2024/02/06 08:33:49;;;;;;;29.92;5.30;;;11.20;99.90;;;;;;5061636;28;20195;-43
2024/02/06 08:36:15;;;;;;;27.92;4.88;;;11.20;99.90;;;;;;5062186;28;20232;-42
2024/02/06 08:38:42;;;;;;;30.75;4.35;;;11.20;99.90;;;;;;5062164;28;20273;-46
2024/02/06 08:41:08;;;;;;;29.05;4.63;;;11.30;99.90;;;;;;5075268;28;20193;-44
2024/02/06 08:43:34;;;;;;;26.63;5.00;;;11.30;99.90;;;;;;5061763;28;20194;-50
2024/02/06 08:46:00;;;;;;;31.23;5.18;;;11.30;99.90;;;;;;5062569;28;20193;-50
2024/02/06 08:48:29;;;;;;;35.80;5.10;;;11.40;99.90;;;;;;5061199;28;20282;-48
2024/02/06 08:50:55;;;;;;;26.08;4.75;;;11.40;99.90;;;;;;5056703;28;20265;-44
2024/02/06 08:53:21;;;;;;;24.20;4.95;;;11.40;99.90;;;;;;5062436;28;20571;-45
2024/02/06 08:55:48;;;;;;;30.90;5.50;;;11.50;99.90;;;;;;5062218;28;20252;-43
2024/02/06 08:58:14;;;;;;;32.63;4.82;;;11.50;99.90;;;;;;5061791;28;20274;-48
2024/02/06 09:00:40;;;;;;;28.98;5.47;;;11.50;99.90;;;;;;5043987;28;20233;-45
2024/02/06 09:03:06;;;;;;;23.40;5.43;;;11.50;99.90;;;;;;5060007;28;20241;-51
2024/02/06 09:05:33;;;;;;;28.13;5.28;;;11.60;99.90;;;;;;5061675;28;20642;-49
2024/02/06 09:07:59;;;;;;;31.42;5.40;;;11.60;99.90;;;;;;5077433;28;20187;-49
2024/02/06 09:10:25;;;;;;;24.50;4.50;;;11.60;99.90;;;;;;5060020;28;20194;-47
2024/02/06 09:12:51;;;;;;;35.33;5.50;;;11.60;99.90;;;;;;5059026;28;20248;-47
2024/02/06 09:15:17;;;;;;;35.28;5.25;;;11.70;99.90;;;;;;5043898;28;20607;-43
2024/02/06 09:17:43;;;;;;;29.63;5.00;;;11.70;99.90;;;;;;5061747;28;20190;-46
2024/02/06 09:20:12;;;;;;;33.50;4.93;;;11.70;99.90;;;;;;5059805;28;20221;-46
2024/02/06 09:22:39;;;;;;;27.63;5.43;;;11.70;99.90;;;;;;5061207;28;20268;-43
2024/02/06 09:25:06;;;;;;;30.02;5.20;;;11.80;99.90;;;;;;5062159;28;20336;-46
2024/02/06 09:27:32;;;;;;;25.23;5.65;;;11.80;99.90;;;;;;5061311;28;20233;-46
2024/02/06 09:29:58;;;;;;;27.73;4.45;;;11.80;99.90;;;;;;5061773;28;20324;-51
2024/02/06 09:32:24;;;;;;;31.23;5.55;;;11.80;99.90;;;;;;5043642;28;20199;-43
2024/02/06 09:34:51;;;;;;;33.22;5.75;;;11.80;99.90;;;;;;5061099;28;20768;-44
2024/02/06 09:37:17;;;;;;;30.17;5.35;;;11.80;99.90;;;;;;5060794;28;20191;-52
2024/02/06 09:39:43;;;;;;;33.75;5.80;;;11.80;99.90;;;;;;5060191;28;20221;-47
2024/02/06 09:42:10;;;;;;;29.52;4.70;;;11.80;99.90;;;;;;5061377;28;20187;-43
2024/02/06 09:44:35;;;;;;;27.40;5.28;;;11.80;99.90;;;;;;5059805;28;21254;-46
2024/02/06 09:47:02;;;;;;;30.13;5.38;;;11.80;99.90;;;;;;5061143;28;20183;-47
2024/02/06 09:49:28;;;;;;;21.65;4.78;;;11.80;99.90;;;;;;5060943;28;20229;-47
2024/02/06 09:51:54;;;;;;;25.50;4.72;;;11.80;99.90;;;;;;5061172;28;20190;-51
2024/02/06 09:54:24;;;;;;;30.25;6.05;;;11.80;99.90;;;;;;5060843;28;20194;-47
2024/02/06 09:56:54;;;;;;;32.40;5.72;;;11.80;99.90;;;;;;5059725;28;20186;-50
2024/02/06 09:59:21;;;;;;;26.48;4.25;;;11.90;99.90;;;;;;5060766;28;20214;-48
2024/02/06 10:01:49;;;;;;;29.75;5.65;;;11.90;99.90;;;;;;5060896;28;20182;-48
2024/02/06 10:04:19;;;;;;;31.60;5.55;;;11.90;99.90;;;;;;5059934;28;20261;-45
2024/02/06 10:06:46;;;;;;;27.35;5.40;;;11.90;99.90;;;;;;5059899;28;20214;-47
2024/02/06 10:09:12;;;;;;;32.40;5.60;;;12.00;99.90;;;;;;5047593;28;20205;-49
2024/02/06 10:11:39;;;;;;;26.52;5.15;;;12.00;99.90;;;;;;5060651;28;20191;-45
2024/02/06 10:14:05;;;;;;;29.50;5.53;;;12.00;99.90;;;;;;5060861;28;20305;-48
2024/02/06 10:16:34;;;;;;;31.40;5.10;;;12.00;99.90;;;;;;5075026;28;20248;-51
2024/02/06 10:19:00;;;;;;;33.25;5.38;;;12.00;99.90;;;;;;5060508;28;20591;-49
2024/02/06 10:21:27;;;;;;;32.95;5.43;;;12.00;99.90;;;;;;5060534;28;20198;-47
2024/02/06 10:23:59;;;;;;;27.35;5.00;;;12.00;99.90;;;;;;5060943;28;20918;-46
2024/02/06 10:26:25;;;;;;;32.97;5.53;;;12.00;99.90;;;;;;5060247;28;20195;-46
2024/02/06 10:29:02;;;;;;;27.48;5.57;;;12.10;99.90;;;;;;5060008;28;20222;-48
2024/02/06 10:31:27;;;;;;;27.88;4.82;;;12.10;99.90;;;;;;5060887;28;20534;-47
2024/02/06 10:33:53;;;;;;;29.90;5.95;;;12.10;99.90;;;;;;5058310;28;20269;-43
2024/02/06 10:36:20;;;;;;;26.00;4.78;;;12.10;99.90;;;;;;5060191;28;20296;-46
2024/02/06 10:38:55;;;;;;;27.27;5.35;;;12.10;99.90;;;;;;5060794;28;20256;-44
2024/02/06 10:41:20;;;;;;;26.83;5.22;;;12.20;99.90;;;;;;5060590;28;20194;-48
2024/02/06 10:43:46;;;;;;;27.35;5.55;;;12.20;99.90;;;;;;5060704;28;20193;-46
2024/02/06 10:46:22;;;;;;;30.23;5.63;;;12.20;99.90;;;;;;5060583;28;21217;-52
2024/02/06 10:48:50;;;;;;;32.83;5.60;;;12.20;99.90;;;;;;5060349;28;20653;-47
2024/02/06 10:51:23;;;;;;;30.33;5.43;;;12.30;99.90;;;;;;5049502;28;20213;-51
2024/02/06 10:53:49;;;;;;;28.13;5.22;;;12.30;99.90;;;;;;5060591;28;20194;-45
2024/02/06 10:56:18;;;;;;;35.55;5.72;;;12.30;99.90;;;;;;5060200;28;20201;-48
2024/02/06 10:58:58;;;;;;;29.80;6.00;;;12.30;99.90;;;;;;5060080;28;20202;-45
2024/02/06 11:01:34;;;;;;;19.75;4.40;;;12.30;99.90;;;;;;5060242;28;20191;-47
2024/02/06 11:04:12;;;;;;;22.63;4.93;;;12.30;99.90;;;;;;5060262;28;20194;-43
2024/02/06 11:06:44;;;;;;;21.83;5.22;;;12.30;99.90;;;;;;5059886;28;20190;-50
2024/02/06 11:09:15;;;;;;;24.85;5.32;;;12.40;99.90;;;;;;5059702;28;20216;-49
2024/02/06 11:11:42;;;;;;;36.70;5.85;;;12.40;99.90;;;;;;5060111;28;20187;-46
2024/02/06 11:14:11;;;;;;;29.85;6.07;;;12.40;99.90;;;;;;5060597;28;20187;-49
2024/02/06 11:16:49;;;;;;;24.65;5.53;;;12.40;99.90;;;;;;5058701;28;20191;-48
2024/02/06 11:19:39;;;;;;;28.27;5.75;;;12.40;99.90;;;;;;5059851;28;21149;-47
2024/02/06 11:22:30;;;;;;;32.63;5.22;;;12.40;99.90;;;;;;5060126;28;20190;-49
2024/02/06 11:24:58;;;;;;;21.45;3.85;;;12.50;99.90;;;;;;5059550;28;20198;-45
2024/02/06 11:27:25;;;;;;;31.48;5.15;;;12.50;99.90;;;;;;5059577;28;20304;-48
2024/02/06 11:29:52;;;;;;;22.80;4.80;;;12.50;99.90;;;;;;5060054;28;20754;-49
2024/02/06 11:32:18;;;;;;;21.23;5.10;;;12.60;99.90;;;;;;5059404;28;20186;-51
2024/02/06 11:34:52;;;;;;;16.83;3.55;;;12.60;99.90;;;;;;5059681;28;20303;-49
2024/02/06 11:37:29;;;;;;;34.67;5.18;;;12.60;99.90;;;;;;5059931;28;20199;-45
2024/02/06 11:40:07;;;;;;;22.40;4.53;;;12.60;99.90;;;;;;5059915;28;21059;-47
2024/02/06 11:42:39;;;;;;;16.65;3.78;;;12.60;99.90;;;;;;5058280;28;20183;-43
2024/02/06 11:45:09;;;;;;;25.08;4.88;;;12.70;99.90;;;;;;5061270;28;20191;-48
2024/02/06 11:47:36;;;;;;;22.17;3.88;;;12.70;99.90;;;;;;5062960;28;20661;-45
2024/02/06 11:50:12;;;;;;;27.27;4.95;;;12.80;99.90;;;;;;5063079;28;20194;-48
2024/02/06 11:52:44;;;;;;;22.50;4.95;;;12.80;99.90;;;;;;5063302;28;20198;-47
2024/02/06 11:55:09;;;;;;;22.98;4.25;;;12.80;99.90;;;;;;5062292;28;20209;-47
2024/02/06 11:57:37;;;;;;;27.80;4.57;;;12.90;99.90;;;;;;5063307;28;20776;-47
2024/02/06 12:00:03;;;;;;;28.90;4.57;;;12.80;99.90;;;;;;5062049;28;20229;-53
2024/02/06 12:02:38;;;;;;;15.82;4.15;;;12.90;99.90;;;;;;5061818;28;20205;-48
2024/02/06 12:05:06;;;;;;;19.83;4.22;;;12.80;99.90;;;;;;5063468;28;20643;-52
2024/02/06 12:07:31;;;;;;;16.40;3.35;;;12.90;99.90;;;;;;5063064;28;21048;-48
2024/02/06 12:09:57;;;;;;;25.58;5.05;;;12.80;99.90;;;;;;5063236;28;20194;-46
2024/02/06 12:12:24;;;;;;;27.98;4.80;;;12.80;99.90;;;;;;5061163;28;20281;-47
2024/02/06 12:14:50;;;;;;;28.77;4.45;;;12.80;99.90;;;;;;5061967;28;21105;-47
2024/02/06 12:17:16;;;;;;;26.27;4.70;;;12.80;99.90;;;;;;5062235;28;20696;-47
2024/02/06 12:19:43;;;;;;;25.40;4.35;;;12.80;99.90;;;;;;5062934;28;20217;-46
2024/02/06 12:22:14;;;;;;;20.17;4.57;;;12.80;99.90;;;;;;5062118;28;20201;-46
2024/02/06 12:24:39;;;;;;;12.00;3.25;;;12.80;99.90;;;;;;5062312;28;20209;-50
2024/02/06 12:27:08;;;;;;;25.00;4.90;;;12.80;99.90;;;;;;5061854;28;20218;-48
2024/02/06 12:29:41;;;;;;;17.77;3.80;;;12.80;99.90;;;;;;5062239;28;20571;-44
2024/02/06 12:32:08;;;;;;;23.48;4.72;;;12.80;99.90;;;;;;5061756;28;20199;-47
2024/02/06 12:34:35;;;;;;;24.15;4.45;;;12.80;99.90;;;;;;5062636;28;20222;-50